14J weather

Carl Folsom Airport
Elba, Alabama, United States

Public forecast

Using degrees Fahrenheit for public forecast. Weather courtesy of forecast.io.

METAR (pilot weather report)

Closest report is Enterprise Municipal Airport, 11.8 nm (21.8 km) SE. Retrieved 2019/05/21 17:15 UTC (0 seconds ago):

KEDN 211715Z AUTO 18011G15KT 10SM CLR 30/16 A2996 RMK AO2 T02970161

TAF (pilot weather forecast)

Closest forecast is Cairns AAF (Fort Rucker) Air Field, 20.9 nm (38.8 km) ESE. Retrieved 2019/05/21 16:24 UTC (39 minutes ago):

TAF KOZR 211600Z 2116/2222 17009KT 9999 FEW060 QNH2990INS BECMG 2203/2204 VRB06KT 9999 SKC QNH2993INS BECMG 2210/2211 VRB06KT 4800 BR SCT005 QNH2997INS TEMPO 2211/2214 0400 FG BKN002 BECMG 2214/2215 17009KT 9999 NSW SCT045 QNH2999INS TX34/2120Z TN21/2208Z